Time;durP1;ratioP1;P1;durP2;ratioP2;P2;SDS_P1;SDS_P2;PMS_P1;PMS_P2;Temp;Humidity;BMP_temperature;BMP_pressure;BME280_temperature;BME280_humidity;BME280_pressure;Samples;Min_cycle;Max_cycle;Signal;HPM_P1;HPM_P2
2021/11/25 00:02:16;;;;;;;12.90;5.47;;;1.30;99.90;;;;;;4999967;28;20038;-85
2021/11/25 00:04:42;;;;;;;16.83;5.53;;;1.30;99.90;;;;;;4985745;28;20464;-85
2021/11/25 00:07:07;;;;;;;13.13;5.50;;;1.30;99.90;;;;;;4983081;28;20050;-85
2021/11/25 00:09:33;;;;;;;13.97;5.40;;;1.30;99.90;;;;;;4983474;28;20057;-85
2021/11/25 00:11:58;;;;;;;12.77;4.97;;;1.30;99.90;;;;;;5001027;28;20677;-85
2021/11/25 00:14:24;;;;;;;18.13;6.27;;;1.20;99.90;;;;;;5000685;28;20426;-85
2021/11/25 00:16:50;;;;;;;13.20;4.57;;;1.20;99.90;;;;;;4982591;28;20065;-85
2021/11/25 00:19:16;;;;;;;14.13;5.03;;;1.20;99.90;;;;;;4983011;28;20450;-85
2021/11/25 00:21:42;;;;;;;15.63;5.80;;;1.30;99.90;;;;;;4982336;28;20031;-85
2021/11/25 00:24:08;;;;;;;12.70;5.33;;;1.30;99.90;;;;;;4982946;28;20037;-85
2021/11/25 00:26:35;;;;;;;13.43;5.43;;;1.30;99.90;;;;;;5000773;28;20061;-85
2021/11/25 00:29:03;;;;;;;11.50;4.73;;;1.20;99.90;;;;;;5001124;28;20026;-85
2021/11/25 00:31:30;;;;;;;12.60;4.73;;;1.20;99.90;;;;;;5000714;28;20040;-85
2021/11/25 00:33:55;;;;;;;16.50;5.40;;;1.30;99.90;;;;;;5001425;28;20042;-85
2021/11/25 00:36:21;;;;;;;15.20;5.33;;;1.30;99.90;;;;;;4983506;28;20029;-85
2021/11/25 00:38:47;;;;;;;13.57;4.93;;;1.30;99.90;;;;;;4984591;28;20029;-85
2021/11/25 00:41:14;;;;;;;14.80;5.03;;;1.30;99.90;;;;;;5001955;28;20430;-85
2021/11/25 00:43:40;;;;;;;13.37;4.47;;;1.20;99.90;;;;;;5002215;28;20053;-85
2021/11/25 00:46:06;;;;;;;12.03;4.67;;;1.20;99.90;;;;;;4984518;28;20492;-85
2021/11/25 00:48:31;;;;;;;14.07;5.90;;;1.30;99.90;;;;;;5001571;28;20053;-85
2021/11/25 00:50:58;;;;;;;11.80;5.00;;;1.30;99.90;;;;;;4984667;28;20031;-85
2021/11/25 00:53:24;;;;;;;14.13;5.27;;;1.30;99.90;;;;;;5001549;28;20041;-85
2021/11/25 00:55:49;;;;;;;12.97;5.37;;;1.30;99.90;;;;;;4979926;28;20454;-85
2021/11/25 00:58:15;;;;;;;14.57;5.33;;;1.30;99.90;;;;;;4981533;28;20078;-85
2021/11/25 01:00:41;;;;;;;11.73;5.00;;;1.30;99.90;;;;;;4982331;28;20045;-85
2021/11/25 01:03:07;;;;;;;17.80;5.60;;;1.30;99.90;;;;;;4990436;28;20026;-85
2021/11/25 01:05:33;;;;;;;13.07;4.83;;;1.30;99.90;;;;;;5000479;28;20097;-85
2021/11/25 01:07:59;;;;;;;11.63;5.47;;;1.20;99.90;;;;;;5000514;28;20042;-85
2021/11/25 01:10:26;;;;;;;16.50;6.00;;;1.30;99.90;;;;;;5000087;28;20428;-85
2021/11/25 01:12:54;;;;;;;15.27;5.23;;;1.30;99.90;;;;;;4999608;28;20042;-85
2021/11/25 01:15:29;;;;;;;16.27;6.27;;;1.30;99.90;;;;;;4982039;28;20034;-85
2021/11/25 01:18:00;;;;;;;18.63;6.47;;;1.30;99.90;;;;;;4981865;28;20392;-85
2021/11/25 01:20:26;;;;;;;15.07;6.13;;;1.30;99.90;;;;;;4981291;28;20042;-85
2021/11/25 01:22:53;;;;;;;15.13;6.00;;;1.30;99.90;;;;;;4997356;28;20054;-85
2021/11/25 01:25:19;;;;;;;15.13;5.70;;;1.30;99.90;;;;;;4980141;28;20038;-85
2021/11/25 01:27:45;;;;;;;13.03;5.13;;;1.30;99.90;;;;;;4997204;28;20065;-84
2021/11/25 01:30:11;;;;;;;14.60;6.07;;;1.30;99.90;;;;;;4982418;28;20038;-85
2021/11/25 01:32:38;;;;;;;14.80;5.13;;;1.30;99.90;;;;;;5001124;28;20057;-85
2021/11/25 01:35:04;;;;;;;15.03;4.90;;;1.30;99.90;;;;;;5000595;28;20030;-85
2021/11/25 01:37:30;;;;;;;12.70;5.60;;;1.40;99.90;;;;;;5000762;28;20026;-85
2021/11/25 01:39:56;;;;;;;12.80;5.07;;;1.40;99.90;;;;;;4982956;28;20026;-84
2021/11/25 01:42:23;;;;;;;12.20;5.37;;;1.30;99.90;;;;;;5000560;28;20042;-85
2021/11/25 01:44:49;;;;;;;15.73;5.53;;;1.30;99.90;;;;;;4999757;28;20038;-85
2021/11/25 01:47:14;;;;;;;13.07;5.00;;;1.30;99.90;;;;;;4982223;28;20030;-84
2021/11/25 01:49:40;;;;;;;14.17;5.13;;;1.30;99.90;;;;;;5000219;28;20030;-85
2021/11/25 01:52:06;;;;;;;11.53;5.20;;;1.30;99.90;;;;;;4999682;28;20093;-85
2021/11/25 01:54:32;;;;;;;12.43;5.10;;;1.30;99.90;;;;;;5007207;28;20034;-85
2021/11/25 01:59:28;;;;;;;12.30;4.83;;;1.30;99.90;;;;;;5016982;23;20086;-88
2021/11/25 02:01:54;;;;;;;17.23;5.70;;;1.30;99.90;;;;;;4979074;28;20109;-87
2021/11/25 02:04:20;;;;;;;17.70;5.40;;;1.30;99.90;;;;;;4964452;28;20069;-87
2021/11/25 02:06:45;;;;;;;16.17;6.13;;;1.20;99.90;;;;;;4965310;28;20043;-87
2021/11/25 02:09:12;;;;;;;16.73;6.50;;;1.30;99.90;;;;;;4981749;28;20035;-87
2021/11/25 02:11:38;;;;;;;12.30;4.50;;;1.30;99.90;;;;;;4979128;28;20117;-87
2021/11/25 02:14:04;;;;;;;14.53;6.50;;;1.20;99.90;;;;;;4982669;28;20112;-87
2021/11/25 02:16:31;;;;;;;18.57;5.53;;;1.20;99.90;;;;;;4983781;28;20023;-88
2021/11/25 02:18:58;;;;;;;15.73;5.87;;;1.10;99.90;;;;;;5000583;28;20018;-87
2021/11/25 02:21:29;;;;;;;14.70;5.27;;;1.20;99.90;;;;;;4981825;28;20022;-87
2021/11/25 02:23:56;;;;;;;15.70;5.73;;;1.10;99.90;;;;;;4982045;28;20267;-87
2021/11/25 02:26:22;;;;;;;15.13;6.07;;;1.20;99.90;;;;;;4981870;28;20026;-87
2021/11/25 02:28:48;;;;;;;13.70;4.93;;;1.20;99.90;;;;;;4998902;28;20509;-87
2021/11/25 02:31:15;;;;;;;15.03;6.33;;;1.20;99.90;;;;;;4980391;28;20030;-87
2021/11/25 02:33:42;;;;;;;14.23;5.87;;;1.20;99.90;;;;;;4998400;28;20391;-87
2021/11/25 02:36:08;;;;;;;14.73;5.77;;;1.20;99.90;;;;;;4999463;28;20027;-87
2021/11/25 02:38:34;;;;;;;15.93;6.80;;;1.30;99.90;;;;;;4982259;28;20037;-86
2021/11/25 02:41:00;;;;;;;15.43;6.13;;;1.30;99.90;;;;;;5000616;28;20031;-90
2021/11/25 02:43:30;;;;;;;17.30;5.97;;;1.30;99.90;;;;;;4984524;28;20022;-86
2021/11/25 02:46:14;;;;;;;14.57;5.57;;;1.30;99.90;;;;;;4982238;28;20094;-87
2021/11/25 02:48:46;;;;;;;13.40;5.40;;;1.30;99.90;;;;;;4981490;28;20462;-87
2021/11/25 02:51:15;;;;;;;11.82;4.30;;;1.30;99.90;;;;;;4981360;28;20026;-87
2021/11/25 02:53:41;;;;;;;14.67;5.67;;;1.30;99.90;;;;;;4980859;28;20575;-87
2021/11/25 02:56:10;;;;;;;15.47;6.07;;;1.40;99.90;;;;;;4998671;28;20023;-88
2021/11/25 02:58:36;;;;;;;16.00;6.73;;;1.40;99.90;;;;;;4981070;28;20034;-88
2021/11/25 03:01:15;;;;;;;17.80;5.93;;;1.40;99.90;;;;;;4981109;28;20097;-87
2021/11/25 03:03:41;;;;;;;16.50;6.50;;;1.40;99.90;;;;;;4980807;28;20034;-87
2021/11/25 03:06:07;;;;;;;12.43;5.47;;;1.40;99.90;;;;;;4981112;28;20088;-88
2021/11/25 03:08:33;;;;;;;14.90;6.47;;;1.30;99.90;;;;;;4998717;28;20034;-87
2021/11/25 03:11:11;;;;;;;16.93;5.50;;;1.30;99.90;;;;;;4981517;28;20022;-87
2021/11/25 03:13:40;;;;;;;13.07;5.37;;;1.40;99.90;;;;;;4977094;28;20531;-88
2021/11/25 03:16:06;;;;;;;17.93;6.13;;;1.30;99.90;;;;;;4978777;28;20026;-86
2021/11/25 03:18:32;;;;;;;13.37;5.83;;;1.10;99.90;;;;;;4961116;28;20498;-87
2021/11/25 03:20:58;;;;;;;15.30;6.07;;;1.20;99.90;;;;;;4975013;28;20101;-87
2021/11/25 03:23:27;;;;;;;15.70;5.73;;;1.20;99.90;;;;;;4997696;28;20026;-88
2021/11/25 03:25:54;;;;;;;13.23;6.13;;;1.20;99.90;;;;;;4980519;28;20035;-88
2021/11/25 03:28:21;;;;;;;17.80;6.73;;;1.20;99.90;;;;;;4980358;28;20050;-87
2021/11/25 03:30:54;;;;;;;16.73;5.67;;;1.20;99.90;;;;;;4962686;28;20031;-88
2021/11/25 03:33:24;;;;;;;16.97;6.20;;;1.20;99.90;;;;;;4979445;28;20018;-88
2021/11/25 03:35:50;;;;;;;17.60;6.43;;;1.30;99.90;;;;;;4980345;28;20026;-87
2021/11/25 03:38:16;;;;;;;15.70;5.97;;;1.30;99.90;;;;;;5008635;28;20104;-88
2021/11/25 03:40:48;;;;;;;15.80;6.27;;;1.30;99.90;;;;;;4993479;28;20029;-87
2021/11/25 03:43:15;;;;;;;19.48;6.35;;;1.30;99.90;;;;;;4980701;28;20026;-87
2021/11/25 03:45:40;;;;;;;14.83;6.30;;;1.30;99.90;;;;;;4980053;28;20108;-88
2021/11/25 03:48:06;;;;;;;16.23;6.40;;;1.40;99.90;;;;;;4981032;28;20018;-87
2021/11/25 03:50:32;;;;;;;14.50;6.77;;;1.40;99.90;;;;;;4981379;28;20545;-88
2021/11/25 03:53:02;;;;;;;17.47;5.67;;;1.30;99.90;;;;;;4980000;28;20064;-88
2021/11/25 03:55:28;;;;;;;15.53;6.23;;;1.40;99.90;;;;;;4997952;28;20026;-89
2021/11/25 03:57:54;;;;;;;17.20;6.20;;;1.40;99.90;;;;;;4999502;28;20038;-88
2021/11/25 04:00:21;;;;;;;15.73;5.93;;;1.40;99.90;;;;;;5003357;28;20026;-88
2021/11/25 04:02:50;;;;;;;18.13;6.63;;;1.30;99.90;;;;;;4985210;28;20027;-87
2021/11/25 04:05:16;;;;;;;12.80;5.43;;;1.30;99.90;;;;;;4980160;28;20821;-87
2021/11/25 04:07:42;;;;;;;17.97;5.90;;;1.40;99.90;;;;;;4980140;28;20124;-87
2021/11/25 04:10:10;;;;;;;19.93;6.40;;;1.40;99.90;;;;;;4979435;28;20022;-88
2021/11/25 04:12:36;;;;;;;17.27;6.47;;;1.40;99.90;;;;;;4979205;28;20030;-87
2021/11/25 04:15:03;;;;;;;13.50;5.97;;;1.40;99.90;;;;;;4977158;28;20015;-87
2021/11/25 04:17:29;;;;;;;14.17;6.23;;;1.40;99.90;;;;;;4960467;28;20023;-87
2021/11/25 04:19:55;;;;;;;20.43;6.10;;;1.30;99.90;;;;;;4974943;28;20387;-87
2021/11/25 04:22:21;;;;;;;16.33;6.40;;;1.40;99.90;;;;;;4994989;28;20030;-87
2021/11/25 04:24:53;;;;;;;17.17;6.60;;;1.40;99.90;;;;;;4977641;28;20054;-87
2021/11/25 04:27:19;;;;;;;19.37;6.47;;;1.40;99.90;;;;;;4978823;28;20032;-88
2021/11/25 04:30:05;;;;;;;16.00;6.00;;;1.40;99.90;;;;;;4978630;28;20030;-87
2021/11/25 04:35:39;;;;;;;14.63;5.77;;;1.30;99.90;;;;;;4996629;28;20042;-87
2021/11/25 04:38:05;;;;;;;17.10;6.40;;;1.30;99.90;;;;;;4995938;28;20077;-87
2021/11/25 04:40:35;;;;;;;17.27;6.77;;;1.30;99.90;;;;;;4978661;28;20506;-88
2021/11/25 04:43:02;;;;;;;18.47;6.87;;;1.20;99.90;;;;;;4995776;28;20018;-88
2021/11/25 04:45:28;;;;;;;17.10;6.13;;;1.30;99.90;;;;;;4978582;28;20054;-87
2021/11/25 04:47:54;;;;;;;16.30;5.60;;;1.30;99.90;;;;;;4978569;28;20039;-87
2021/11/25 04:50:20;;;;;;;17.77;6.90;;;1.30;99.90;;;;;;4977924;28;20054;-87
2021/11/25 04:52:47;;;;;;;18.63;6.47;;;1.40;99.90;;;;;;4978316;28;20029;-87
2021/11/25 04:55:13;;;;;;;18.27;6.40;;;1.30;99.90;;;;;;4995433;28;20022;-87
2021/11/25 04:57:39;;;;;;;15.80;6.07;;;1.20;99.90;;;;;;4979130;28;20023;-87
2021/11/25 05:00:06;;;;;;;14.97;6.00;;;1.10;99.90;;;;;;4974420;28;20134;-87
2021/11/25 05:02:33;;;;;;;18.07;6.33;;;1.10;99.90;;;;;;4959475;28;20038;-87
2021/11/25 05:04:59;;;;;;;14.93;6.03;;;1.10;99.90;;;;;;4969070;28;20063;-87
2021/11/25 05:07:26;;;;;;;17.50;6.50;;;1.10;99.90;;;;;;4982237;28;20136;-87
2021/11/25 05:09:52;;;;;;;14.27;6.57;;;1.20;99.90;;;;;;4981947;28;20026;-87
2021/11/25 05:12:18;;;;;;;18.10;6.63;;;1.20;99.90;;;;;;4981250;28;20022;-87
2021/11/25 05:14:43;;;;;;;18.50;6.77;;;1.20;99.90;;;;;;4981386;28;20026;-87
2021/11/25 05:17:09;;;;;;;16.13;7.30;;;1.20;99.90;;;;;;4981425;28;20018;-86
2021/11/25 05:19:35;;;;;;;18.50;6.97;;;1.20;99.90;;;;;;4982985;28;20671;-86
2021/11/25 05:22:02;;;;;;;18.87;6.27;;;1.10;99.90;;;;;;5001127;28;20032;-87
2021/11/25 05:24:28;;;;;;;14.70;6.30;;;1.20;99.90;;;;;;4984531;28;20030;-87
2021/11/25 05:26:53;;;;;;;16.37;6.83;;;1.30;99.90;;;;;;4979353;28;20301;-87
2021/11/25 05:29:21;;;;;;;16.80;6.27;;;1.20;99.90;;;;;;4979661;28;20030;-89
2021/11/25 05:31:49;;;;;;;17.17;5.90;;;1.10;99.90;;;;;;4977972;28;20085;-88
2021/11/25 05:34:18;;;;;;;18.47;7.20;;;1.30;99.90;;;;;;4979130;28;20023;-87
2021/11/25 05:36:45;;;;;;;17.33;5.90;;;1.20;99.90;;;;;;4972518;28;20026;-88
2021/11/25 05:39:12;;;;;;;19.47;6.73;;;1.30;99.90;;;;;;4974496;28;20022;-88
2021/11/25 05:41:40;;;;;;;19.20;7.07;;;1.10;99.90;;;;;;4991021;28;20467;-88
2021/11/25 05:44:07;;;;;;;18.23;6.20;;;1.20;99.90;;;;;;4994028;28;20041;-88
2021/11/25 05:46:33;;;;;;;20.03;7.20;;;1.20;99.90;;;;;;4992148;28;20442;-87
2021/11/25 05:48:59;;;;;;;16.73;6.10;;;1.20;99.90;;;;;;4976588;28;20038;-88
2021/11/25 05:51:25;;;;;;;18.47;7.23;;;1.20;99.90;;;;;;4976012;28;20036;-87
2021/11/25 05:53:51;;;;;;;15.27;6.43;;;1.30;99.90;;;;;;4976067;28;20038;-87
2021/11/25 05:56:17;;;;;;;19.43;6.97;;;1.30;99.90;;;;;;4977408;28;20022;-87
2021/11/25 05:58:42;;;;;;;19.27;7.03;;;1.40;99.90;;;;;;4993953;28;20487;-87
2021/11/25 06:01:08;;;;;;;18.03;6.50;;;1.30;99.90;;;;;;4976772;28;20031;-87
2021/11/25 06:03:34;;;;;;;19.50;7.07;;;1.30;99.90;;;;;;4989522;28;20073;-87
2021/11/25 06:06:00;;;;;;;18.23;7.27;;;1.30;99.90;;;;;;4975745;28;20034;-87
2021/11/25 06:08:26;;;;;;;17.13;7.30;;;1.40;99.90;;;;;;4972307;28;20035;-87
2021/11/25 06:10:51;;;;;;;21.87;7.27;;;1.40;99.90;;;;;;4982200;28;20118;-88
2021/11/25 06:13:17;;;;;;;19.53;6.40;;;1.40;99.90;;;;;;4976684;28;20046;-88
2021/11/25 06:15:46;;;;;;;17.20;7.30;;;1.40;99.90;;;;;;4975768;28;20093;-87
2021/11/25 06:18:12;;;;;;;18.33;6.57;;;1.40;99.90;;;;;;4994949;28;20022;-86
2021/11/25 06:20:38;;;;;;;19.33;6.37;;;1.40;99.90;;;;;;4975136;28;20030;-87
2021/11/25 06:23:05;;;;;;;19.47;6.10;;;1.40;99.90;;;;;;4993134;28;20475;-87
2021/11/25 06:25:32;;;;;;;18.70;6.67;;;1.30;99.90;;;;;;4973626;28;20038;-88
2021/11/25 06:27:58;;;;;;;15.03;5.77;;;1.30;99.90;;;;;;4975968;28;20045;-88
2021/11/25 06:30:24;;;;;;;18.53;6.67;;;1.30;99.90;;;;;;4975629;28;20387;-89
2021/11/25 06:32:50;;;;;;;17.53;6.13;;;1.20;99.90;;;;;;4975974;28;20113;-87
2021/11/25 06:35:18;;;;;;;17.80;5.97;;;1.20;99.90;;;;;;4974823;28;20022;-89
2021/11/25 06:37:46;;;;;;;16.57;6.77;;;1.10;99.90;;;;;;4973904;28;20030;-90
2021/11/25 06:40:15;;;;;;;16.77;6.77;;;1.20;99.90;;;;;;4994086;28;20077;-88
2021/11/25 06:42:41;;;;;;;17.77;6.77;;;1.20;99.90;;;;;;4989371;28;20062;-89
2021/11/25 06:45:07;;;;;;;21.40;6.77;;;1.10;99.90;;;;;;4993580;28;20034;-88
2021/11/25 06:47:33;;;;;;;16.40;5.90;;;1.10;99.90;;;;;;4976534;28;20042;-88
2021/11/25 06:49:58;;;;;;;19.33;7.20;;;1.10;99.90;;;;;;4985958;28;20030;-88
2021/11/25 06:52:24;;;;;;;19.00;6.40;;;1.10;99.90;;;;;;4973443;28;20483;-88
2021/11/25 06:54:50;;;;;;;20.83;7.73;;;1.10;99.90;;;;;;4990565;28;20149;-88
2021/11/25 06:57:16;;;;;;;14.63;6.93;;;1.20;99.90;;;;;;4970591;28;20027;-89
2021/11/25 06:59:41;;;;;;;16.90;5.73;;;1.20;99.90;;;;;;4989026;28;20155;-88
2021/11/25 07:02:08;;;;;;;21.27;7.47;;;1.20;99.90;;;;;;4974978;28;20050;-88
2021/11/25 07:04:36;;;;;;;18.97;7.50;;;1.20;99.90;;;;;;4975836;28;20038;-88
2021/11/25 07:07:03;;;;;;;16.43;6.50;;;1.10;99.90;;;;;;4994841;28;20355;-88
2021/11/25 07:09:29;;;;;;;15.47;6.20;;;1.10;99.90;;;;;;4976522;28;20084;-88
2021/11/25 07:11:54;;;;;;;18.97;7.40;;;1.00;99.90;;;;;;4994551;28;20479;-88
2021/11/25 07:14:20;;;;;;;18.53;6.40;;;1.00;99.90;;;;;;4994112;28;20076;-88
2021/11/25 07:16:46;;;;;;;18.63;7.10;;;1.00;99.90;;;;;;4987913;28;20058;-88
2021/11/25 07:19:11;;;;;;;18.60;6.20;;;1.10;99.90;;;;;;4993940;28;20023;-88
2021/11/25 07:21:40;;;;;;;19.70;7.50;;;1.10;99.90;;;;;;4975469;28;20037;-88
2021/11/25 07:24:10;;;;;;;20.30;6.80;;;1.10;99.90;;;;;;4970022;28;20089;-88
2021/11/25 07:26:35;;;;;;;17.23;7.47;;;1.10;99.90;;;;;;4972730;28;20510;-88
2021/11/25 07:29:01;;;;;;;18.10;6.50;;;1.00;99.90;;;;;;4973346;28;20117;-87
2021/11/25 07:31:29;;;;;;;17.80;6.90;;;1.00;99.90;;;;;;4975399;28;20143;-88
2021/11/25 07:33:58;;;;;;;17.00;6.37;;;0.90;99.90;;;;;;4976105;28;20038;-88
2021/11/25 07:36:24;;;;;;;16.87;6.40;;;0.90;99.90;;;;;;4976824;28;20026;-88
2021/11/25 07:38:50;;;;;;;21.00;7.03;;;0.90;99.90;;;;;;4994086;28;20027;-88
2021/11/25 07:41:16;;;;;;;17.73;6.63;;;1.00;99.90;;;;;;4975367;28;20077;-86
2021/11/25 07:43:42;;;;;;;20.93;7.20;;;0.90;99.90;;;;;;4971943;28;20150;-87
2021/11/25 07:46:08;;;;;;;19.97;7.43;;;1.00;99.90;;;;;;4971643;28;20459;-87
2021/11/25 07:48:34;;;;;;;20.53;7.60;;;1.00;99.90;;;;;;4971357;28;20408;-87
2021/11/25 07:51:01;;;;;;;17.73;7.87;;;1.10;99.90;;;;;;4960632;28;20038;-88
2021/11/25 07:53:28;;;;;;;21.27;7.30;;;1.10;99.90;;;;;;4955021;28;20054;-87
2021/11/25 07:55:54;;;;;;;16.17;6.37;;;1.20;99.90;;;;;;4981259;28;20125;-86
2021/11/25 08:00:56;;;;;;;15.60;6.43;;;1.30;99.90;;;;;;4803346;26;20110;-85
2021/11/25 08:03:23;;;;;;;18.60;6.27;;;1.30;99.90;;;;;;4974776;29;20091;-85
2021/11/25 08:05:48;;;;;;;16.60;6.80;;;1.30;99.90;;;;;;4975316;28;20071;-85
2021/11/25 08:08:14;;;;;;;18.47;6.53;;;1.30;99.90;;;;;;4975290;29;20022;-85
2021/11/25 08:10:41;;;;;;;19.13;6.53;;;1.30;99.90;;;;;;4975194;29;20062;-85
2021/11/25 08:13:07;;;;;;;19.60;6.33;;;1.30;99.90;;;;;;4974851;29;20019;-85
2021/11/25 08:15:33;;;;;;;18.00;6.57;;;1.30;99.90;;;;;;4976849;28;20035;-85
2021/11/25 08:18:00;;;;;;;17.27;6.53;;;1.40;99.90;;;;;;4976597;28;20026;-85
2021/11/25 08:20:26;;;;;;;21.23;7.27;;;1.30;99.90;;;;;;4970440;28;20034;-85
2021/11/25 08:22:52;;;;;;;12.87;5.17;;;1.40;99.90;;;;;;4972527;28;20043;-85
2021/11/25 08:25:18;;;;;;;16.13;5.63;;;1.30;99.90;;;;;;4975153;28;20192;-85
2021/11/25 08:27:44;;;;;;;18.10;6.50;;;1.40;99.90;;;;;;4975207;28;20083;-85
2021/11/25 08:30:13;;;;;;;17.63;6.60;;;1.30;99.90;;;;;;4972761;28;20015;-84
2021/11/25 08:32:39;;;;;;;17.50;7.33;;;1.30;99.90;;;;;;4975574;29;20053;-85
2021/11/25 08:35:05;;;;;;;16.57;6.13;;;1.30;99.90;;;;;;4976378;28;20023;-85
2021/11/25 08:37:32;;;;;;;21.60;7.87;;;1.30;99.90;;;;;;4976341;28;20035;-85
2021/11/25 08:39:57;;;;;;;19.43;7.03;;;1.30;99.90;;;;;;4974412;28;20090;-85
2021/11/25 08:42:23;;;;;;;20.23;6.97;;;1.40;99.90;;;;;;4975172;29;20031;-85
2021/11/25 08:44:49;;;;;;;19.17;7.43;;;1.60;99.90;;;;;;4970675;28;20075;-85
2021/11/25 08:47:14;;;;;;;23.47;7.00;;;1.60;99.90;;;;;;4966028;29;20031;-85
2021/11/25 08:49:40;;;;;;;18.07;7.60;;;1.50;99.90;;;;;;4973751;28;20066;-85
2021/11/25 08:52:06;;;;;;;20.70;7.13;;;1.40;99.90;;;;;;4973284;28;20039;-85
2021/11/25 08:54:31;;;;;;;18.43;7.63;;;1.50;99.90;;;;;;4976291;28;20023;-85
2021/11/25 08:56:57;;;;;;;21.70;7.07;;;1.50;99.90;;;;;;4976197;28;20027;-84
2021/11/25 08:59:23;;;;;;;22.43;7.47;;;1.60;99.90;;;;;;4975718;29;20099;-85
2021/11/25 09:01:49;;;;;;;18.97;7.00;;;1.60;99.90;;;;;;4974891;28;20087;-85
2021/11/25 09:04:15;;;;;;;16.70;6.37;;;1.60;99.90;;;;;;4975431;29;20023;-85
2021/11/25 09:06:41;;;;;;;23.47;8.20;;;1.60;99.90;;;;;;4975194;28;20023;-86
2021/11/25 09:09:08;;;;;;;19.57;7.30;;;1.60;99.90;;;;;;4975175;29;20038;-85
2021/11/25 09:11:35;;;;;;;20.07;7.83;;;1.70;99.90;;;;;;4957028;29;20135;-85
2021/11/25 09:14:01;;;;;;;21.03;6.63;;;1.70;99.90;;;;;;4974282;28;20028;-85
2021/11/25 09:16:27;;;;;;;17.43;6.93;;;1.60;99.90;;;;;;4975149;29;20034;-85
2021/11/25 09:18:53;;;;;;;17.17;6.67;;;1.70;99.90;;;;;;4958099;29;20016;-85
2021/11/25 09:21:20;;;;;;;16.57;7.27;;;1.70;99.90;;;;;;4956470;28;20841;-85
2021/11/25 09:23:46;;;;;;;17.43;6.77;;;1.60;99.90;;;;;;4958067;29;20026;-85
2021/11/25 09:26:11;;;;;;;18.40;6.03;;;1.60;99.90;;;;;;4974184;29;20027;-85
2021/11/25 09:28:37;;;;;;;15.90;5.97;;;1.60;99.90;;;;;;4955306;28;20086;-85
2021/11/25 09:31:03;;;;;;;23.93;6.90;;;1.60;99.90;;;;;;4955933;29;20038;-85
2021/11/25 09:33:28;;;;;;;16.33;5.93;;;1.50;99.90;;;;;;4973700;29;20054;-85
2021/11/25 09:35:54;;;;;;;18.63;7.07;;;1.50;99.90;;;;;;4973195;28;20280;-85
2021/11/25 09:38:20;;;;;;;21.30;7.63;;;1.50;99.90;;;;;;4973702;29;20030;-85
2021/11/25 09:40:48;;;;;;;19.93;6.90;;;1.60;99.90;;;;;;4956165;29;20023;-85
2021/11/25 09:43:20;;;;;;;21.57;6.63;;;1.60;99.90;;;;;;4972838;28;20032;-85
2021/11/25 09:45:49;;;;;;;23.55;8.27;;;1.60;99.90;;;;;;4973912;29;20011;-85
2021/11/25 09:48:15;;;;;;;17.27;6.30;;;1.60;99.90;;;;;;4974147;29;20003;-85
2021/11/25 09:50:45;;;;;;;25.33;7.43;;;1.70;99.90;;;;;;4977620;28;20007;-85
2021/11/25 09:53:14;;;;;;;19.10;7.30;;;1.70;99.90;;;;;;4976859;28;20035;-85
2021/11/25 09:55:44;;;;;;;18.10;6.90;;;1.70;99.90;;;;;;4976049;28;20039;-86
2021/11/25 09:58:14;;;;;;;20.40;7.40;;;1.70;99.90;;;;;;4970314;29;20019;-85
2021/11/25 10:00:45;;;;;;;19.07;7.30;;;1.80;99.90;;;;;;4978665;29;20047;-85
2021/11/25 10:03:15;;;;;;;18.43;7.00;;;1.80;99.90;;;;;;4960422;28;20020;-85
2021/11/25 10:05:45;;;;;;;19.03;7.17;;;1.80;99.90;;;;;;4966421;28;20023;-85
2021/11/25 10:08:44;;;;;;;23.40;7.10;;;1.80;99.90;;;;;;4979467;28;20019;-85
2021/11/25 10:11:32;;;;;;;23.07;7.37;;;1.80;99.90;;;;;;4970706;28;20070;-85
2021/11/25 10:14:09;;;;;;;18.57;6.83;;;1.80;99.90;;;;;;4959480;28;20067;-85
2021/11/25 10:16:45;;;;;;;20.13;6.53;;;1.80;99.90;;;;;;4960072;28;20008;-85
2021/11/25 10:19:19;;;;;;;19.70;7.40;;;1.80;99.90;;;;;;4960566;28;20032;-84
2021/11/25 10:21:56;;;;;;;16.90;6.43;;;1.80;99.90;;;;;;4979257;28;20035;-85
2021/11/25 10:24:48;;;;;;;19.13;7.40;;;1.80;99.90;;;;;;4979176;28;20026;-85
2021/11/25 10:27:19;;;;;;;22.90;7.70;;;1.90;99.90;;;;;;4979188;28;20011;-85
2021/11/25 10:30:07;;;;;;;19.43;6.60;;;1.90;99.90;;;;;;4979429;28;20019;-85
2021/11/25 10:32:33;;;;;;;18.00;7.77;;;1.80;99.90;;;;;;4978948;28;20094;-85
2021/11/25 10:35:21;;;;;;;21.93;7.37;;;1.90;99.90;;;;;;4978841;28;20035;-85
2021/11/25 10:38:09;;;;;;;21.10;7.87;;;1.90;99.90;;;;;;4979233;28;20020;-85
2021/11/25 10:40:36;;;;;;;17.60;7.27;;;1.90;99.90;;;;;;4962317;28;20199;-85
2021/11/25 10:43:20;;;;;;;22.27;7.53;;;1.80;99.90;;;;;;4958031;28;20023;-85
2021/11/25 10:45:48;;;;;;;19.13;7.10;;;1.80;99.90;;;;;;4958695;28;20046;-85
2021/11/25 10:48:35;;;;;;;24.90;7.87;;;1.90;99.90;;;;;;4959481;28;20144;-85
2021/11/25 10:51:21;;;;;;;19.67;7.80;;;2.00;99.90;;;;;;4958802;28;20024;-84
2021/11/25 10:54:12;;;;;;;26.40;7.50;;;2.00;99.90;;;;;;4977460;28;20023;-85
2021/11/25 10:56:42;;;;;;;18.30;7.53;;;2.10;99.90;;;;;;4961707;28;20011;-86
2021/11/25 10:59:11;;;;;;;24.33;8.07;;;2.20;99.90;;;;;;4978030;28;20087;-84
2021/11/25 11:01:46;;;;;;;21.53;7.30;;;2.00;99.90;;;;;;4960937;28;20023;-85
2021/11/25 11:04:14;;;;;;;21.40;7.63;;;2.20;99.90;;;;;;4978820;28;20054;-85
2021/11/25 11:06:42;;;;;;;21.90;8.13;;;2.20;99.90;;;;;;4978521;28;20026;-85
2021/11/25 11:09:39;;;;;;;20.43;7.17;;;2.20;99.90;;;;;;4978270;28;20047;-85
2021/11/25 11:12:32;;;;;;;22.23;7.07;;;2.10;99.90;;;;;;4978244;28;20030;-85
2021/11/25 11:15:26;;;;;;;20.88;7.55;;;2.10;99.90;;;;;;4977723;28;20031;-85
2021/11/25 11:20:31;;;;;;;21.73;7.83;;;2.20;99.90;;;;;;4978531;28;20039;-85
2021/11/25 11:23:03;;;;;;;21.23;7.93;;;2.20;99.90;;;;;;4977268;28;20024;-85
2021/11/25 11:25:33;;;;;;;20.98;8.35;;;2.30;99.90;;;;;;4978177;28;20051;-85
2021/11/25 11:28:03;;;;;;;17.27;7.87;;;2.30;99.90;;;;;;4977936;28;20047;-85
2021/11/25 11:30:29;;;;;;;24.07;7.83;;;2.30;99.90;;;;;;4977469;28;20043;-86
2021/11/25 11:32:56;;;;;;;21.07;7.17;;;2.30;99.90;;;;;;4960404;28;20031;-86
2021/11/25 11:35:26;;;;;;;19.30;7.30;;;2.40;99.90;;;;;;4977584;28;20053;-85
2021/11/25 11:37:55;;;;;;;19.90;7.90;;;2.40;99.90;;;;;;4977936;28;20165;-85
2021/11/25 11:40:23;;;;;;;21.57;8.03;;;2.40;99.90;;;;;;4977598;28;20035;-85
2021/11/25 11:42:51;;;;;;;23.50;7.83;;;2.50;99.90;;;;;;4960010;29;20057;-85
2021/11/25 11:45:18;;;;;;;22.57;8.10;;;2.50;99.90;;;;;;4977313;28;20098;-85
2021/11/25 11:47:44;;;;;;;18.07;7.37;;;2.60;99.90;;;;;;4977345;28;20058;-85
2021/11/25 11:50:11;;;;;;;18.47;7.07;;;2.60;99.90;;;;;;4976625;28;20023;-85
2021/11/25 11:52:59;;;;;;;20.30;7.93;;;2.80;99.90;;;;;;4971334;28;20047;-85
2021/11/25 11:55:59;;;;;;;19.23;7.97;;;2.70;99.90;;;;;;4970312;29;20008;-85
2021/11/25 11:58:24;;;;;;;19.70;6.97;;;2.70;99.90;;;;;;4969046;28;20135;-85
2021/11/25 12:00:53;;;;;;;19.60;7.10;;;2.80;99.90;;;;;;4974746;29;20016;-85
2021/11/25 12:03:48;;;;;;;19.83;8.27;;;2.90;99.90;;;;;;4971863;28;20039;-86
2021/11/25 12:06:32;;;;;;;18.03;7.13;;;2.80;99.90;;;;;;4950068;28;20367;-85
2021/11/25 12:08:59;;;;;;;18.97;8.00;;;2.80;99.90;;;;;;4967629;28;20099;-85
2021/11/25 12:11:37;;;;;;;20.77;8.67;;;2.80;99.90;;;;;;4975508;29;20085;-85
2021/11/25 12:14:05;;;;;;;17.37;7.40;;;2.80;99.90;;;;;;4970602;28;20058;-85
2021/11/25 12:16:35;;;;;;;21.67;8.30;;;2.90;99.90;;;;;;4973047;28;20055;-86
2021/11/25 12:19:05;;;;;;;21.03;7.73;;;2.90;99.90;;;;;;4956947;29;20078;-86
2021/11/25 12:21:47;;;;;;;20.77;7.50;;;3.00;99.90;;;;;;4966491;29;20051;-85
2021/11/25 12:24:31;;;;;;;14.38;5.05;;;2.90;99.90;;;;;;4965885;29;20003;-84
2021/11/25 12:27:26;;;;;;;19.27;7.53;;;2.90;99.90;;;;;;4970263;28;20110;-85
2021/11/25 12:30:00;;;;;;;19.23;7.50;;;2.90;99.90;;;;;;4969294;29;20234;-85
2021/11/25 12:32:41;;;;;;;16.67;7.10;;;2.80;99.90;;;;;;4973001;29;20008;-85
2021/11/25 12:35:17;;;;;;;22.53;7.97;;;2.90;99.90;;;;;;4971263;28;20020;-85
2021/11/25 12:37:55;;;;;;;22.73;7.77;;;3.00;99.90;;;;;;4973006;29;20012;-85
2021/11/25 12:40:21;;;;;;;21.90;7.93;;;2.90;99.90;;;;;;4972422;28;20019;-86
2021/11/25 12:42:51;;;;;;;20.57;8.60;;;3.00;99.90;;;;;;4974855;29;20066;-85
2021/11/25 12:45:32;;;;;;;17.53;7.53;;;3.00;99.90;;;;;;4957347;28;20030;-85
2021/11/25 12:48:08;;;;;;;20.07;7.57;;;3.00;99.90;;;;;;4971424;28;20061;-86
2021/11/25 12:51:27;;;;;;;19.00;7.87;;;3.00;99.90;;;;;;4957796;28;20029;-86
2021/11/25 12:54:05;;;;;;;21.97;7.83;;;3.00;99.90;;;;;;4934615;28;20038;-86
2021/11/25 12:56:34;;;;;;;21.23;8.27;;;3.10;99.90;;;;;;4976026;28;20031;-86
2021/11/25 12:59:10;;;;;;;20.07;7.33;;;3.10;99.90;;;;;;4959110;28;20027;-86
2021/11/25 13:01:49;;;;;;;23.17;8.23;;;3.00;99.90;;;;;;4958014;28;20027;-86
2021/11/25 13:04:20;;;;;;;17.17;7.20;;;2.90;99.90;;;;;;4956937;28;20027;-86
2021/11/25 13:06:55;;;;;;;19.90;7.57;;;2.90;99.90;;;;;;4956317;28;20016;-86
2021/11/25 13:09:26;;;;;;;17.67;7.03;;;2.90;99.90;;;;;;4956107;28;20401;-86